Surface observations / UK / EGOM

Quebec | Canada | USA | France | UK | Europe | Elsewhere

Display: Info & Location for EGOM | Help decoding METAR


Raw surface observations for station EGOM
EGOM 312350Z AUTO 26015KT 8000 -SHRA BKN002/// 12/12 Q1005=
EGOM 312250Z AUTO 19019KT 9999 BKN018/// 16/13 Q1004=
EGOM 312150Z AUTO 16018KT 9999 SCT027/// BKN034/// 16/13 Q1004=
EGOM 312050Z AUTO 17018KT 9999 SCT019/// BKN140/// 16/13 Q1005=
EGOM 311950Z AUTO 18017KT 9999 SCT030/// SCT160/// 15/13 Q1005=
EGOM 311850Z AUTO 18014KT 9999 FEW042/// 15/12 Q1006=
EGOM 311750Z AUTO 21011KT 9999 BKN028/// 15/12 Q1007=
EGOM 311650Z AUTO 19019KT 9999 NCD 15/12 Q1007=
EGOM 311550Z AUTO 19014KT 9999 NCD 15/12 Q1007=
EGOM 311450Z AUTO 20014KT 9999 NCD 16/13 Q1008=
EGOM 311350Z 22015KT CAVOK 17/14 Q1008 BLU=
EGOM 311250Z 22015KT CAVOK 17/13 Q1009 BLU=
EGOM 311150Z 22014KT 9999 FEW022 BKN200 16/14 Q1009 BLU=
EGOM 011150Z AUTO 22012KT 9999 FEW050/// 11/08 Q1007=
EGOM 011050Z AUTO 21010KT 9999 BKN044/// 11/09 Q1008=
EGOM 010950Z AUTO 19007KT 9999 FEW023/// BKN033/// 09/08 Q1008 RERA=
EGOM 010850Z AUTO 23014KT 9999 NCD 09/08 Q1008=
EGOM 010750Z AUTO 23014KT 9999 FEW008/// SCT013/// 09/09 Q1007=
EGOM 010650Z AUTO 24015KT 9999 BKN007/// BKN028/// 09/09 Q1007 RERA=
EGOM 010550Z AUTO 23010KT 8000 BR BKN003/// SCT010/// 10/10 Q1006 RERA=
EGOM 010450Z AUTO 23009KT 2700 SHRA BKN001/// 10/10 Q1006=
EGOM 010350Z AUTO 25011KT 6000 SHRA FEW005/// BKN013/// 10/09 Q1006=
EGOM 010250Z AUTO 20007KT 9999 BKN009/// 11/11 Q1006=
EGOM 010150Z AUTO 21008KT 9999 FEW002/// BKN016/// BKN035/// 11/11 Q1006 RERA=
EGOM 010050Z AUTO 23008KT 5000 -DZ BKN002/// 11/11 Q1006=